Stephen L. — WDE7070 — position and weather

sailwx.info

Track history (hours):
 
Tides and Currents Weather Stations Pressure Air Temp Water Temp Dewpoint Dewpoint Depression Visibility Wind Speed Wind Dir Waves Ship Positions

Stephen L.

Owner: TRIPLE S MARINE, LLC, MORGAN CITY, LA. More information available from US FCC via Universal Licensing System and Coast Guard Vessel Documentation Center.

Last reported at 2017-Aug-16 21:18 UTC. Time now 2017-Aug-19 01:47 UTC.
Position N 29°34' W 090°56'.

Length 20 m.

Type: Ship. MMSI: 367388580.

Date/timePositionNaut miles runAvg speedWind from/ knotsBaromVisibWave heightAir tempDewpointWater temp
2017-Aug-16 21:18N 29°34' W 090°56'5 6.0
2017-Aug-16 20:31N 29°32' W 090°51'0 6.3
2017-Aug-16 20:29N 29°32' W 090°51'3 6.5
2017-Aug-16 20:00N 29°32' W 090°47'3 5.5
2017-Aug-16 19:30N 29°34' W 090°45'2 3.8
2017-Aug-16 19:00N 29°33' W 090°42'3 6.6
2017-Aug-16 18:31N 29°30' W 090°43'3 6.7
2017-Aug-16 18:00N 29°27' W 090°43'  
2017-Aug-13 08:51N 29°25' W 090°44'2 5.0
2017-Aug-13 08:30N 29°26' W 090°43'3 5.8
2017-Aug-13 08:00N 29°29' W 090°43'3 5.8
2017-Aug-13 07:30N 29°32' W 090°42'2 4.4
2017-Aug-13 07:01N 29°34' W 090°43'2 4.1
2017-Aug-13 06:30N 29°33' W 090°45'2 4.6
2017-Aug-13 06:00N 29°32' W 090°47'3 5.4
2017-Aug-13 05:30N 29°32' W 090°51'3 5.2
2017-Aug-13 04:58N 29°33' W 090°54'3 5.3
2017-Aug-13 04:29N 29°34' W 090°56'2 4.8
2017-Aug-13 04:00N 29°36' W 090°58'50 3.1
2017-Aug-12 11:53N 29°57' W 091°51'0 0.0
2017-Aug-12 11:30N 29°57' W 091°50'  
2017-Aug-09 11:29N 29°49' W 092°02'3 6.1
2017-Aug-09 11:00N 29°48' W 092°06'3 5.8
2017-Aug-09 10:30N 29°47' W 092°09'2 3.2
2017-Aug-09 10:00N 29°47' W 092°10'2 4.4
2017-Aug-09 09:30N 29°47' W 092°13'3 6.3
2017-Aug-09 09:00N 29°49' W 092°16'3 5.9
2017-Aug-09 08:30N 29°50' W 092°19'39 5.6
2017-Aug-09 01:26N 29°56' W 093°04'5 5.8
2017-Aug-09 00:38N 29°56' W 093°09'1 6.0
2017-Aug-09 00:30N 29°57' W 093°10'3 6.1
2017-Aug-09 00:00N 29°59' W 093°12'3 5.4
2017-Aug-08 23:30N 30°01' W 093°14'3 5.4
2017-Aug-08 23:00N 30°03' W 093°16'2 3.9
2017-Aug-08 22:30N 30°05' W 093°17'1 2.0
2017-Aug-08 22:00N 30°06' W 093°18'0 0.6
2017-Aug-08 21:30N 30°06' W 093°18'0 0.0
2017-Aug-08 21:00N 30°06' W 093°18'1 1.0
2017-Aug-08 20:30N 30°06' W 093°19'4 7.4
2017-Aug-08 20:00N 30°10' W 093°19'1 2.4
2017-Aug-08 19:30N 30°11' W 093°19'3 6.7
2017-Aug-08 19:00N 30°13' W 093°16'2 3.1
2017-Aug-08 18:30N 30°14' W 093°15'0 0.3
2017-Aug-08 16:56N 30°15' W 093°15'0 0.0
2017-Aug-08 16:27N 30°15' W 093°15'0 0.0
2017-Aug-08 16:00N 30°15' W 093°15'0 0.0
2017-Aug-08 15:30N 30°15' W 093°15'0 0.0
2017-Aug-08 15:00N 30°15' W 093°15'0 0.0
2017-Aug-08 14:28N 30°15' W 093°15'0 0.1
2017-Aug-08 13:58N 30°15' W 093°15'0 0.0
2017-Aug-07 16:00N 30°15' W 093°15'0 0.0
2017-Aug-07 14:54N 30°15' W 093°15'0 0.1
2017-Aug-07 14:12N 30°15' W 093°15'0 0.0
2017-Aug-07 13:58N 30°15' W 093°15'0 0.0
2017-Aug-07 13:29N 30°15' W 093°15'0 0.0
2017-Aug-07 12:59N 30°15' W 093°15'0 0.0
2017-Aug-07 12:11N 30°15' W 093°15'0 0.0
2017-Aug-07 11:56N 30°15' W 093°15'0 0.0
2017-Aug-07 11:26N 30°15' W 093°15'0 0.0
2017-Aug-07 10:56N 30°15' W 093°15'0 0.0
2017-Aug-07 10:17N 30°15' W 093°15'0 0.0
2017-Aug-07 09:58N 30°15' W 093°15'0 0.0
2017-Aug-07 09:07N 30°15' W 093°15'0 0.0
2017-Aug-07 08:59N 30°15' W 093°15'0 0.0
2017-Aug-07 08:24N 30°15' W 093°15'0 0.0
2017-Aug-07 07:59N 30°15' W 093°15'0 0.0
2017-Aug-07 03:51N 30°15' W 093°15'0 0.0
2017-Aug-07 03:30N 30°15' W 093°15'0 0.0
2017-Aug-07 01:32N 30°15' W 093°15'0 0.0
2017-Aug-07 01:21N 30°15' W 093°15'0 0.0
2017-Aug-07 00:27N 30°15' W 093°15'0 0.0
2017-Aug-06 23:57N 30°15' W 093°15'0 0.0
2017-Aug-06 23:28N 30°15' W 093°15'0 0.0
2017-Aug-06 22:12N 30°15' W 093°15'0 0.0
2017-Aug-06 21:55N 30°15' W 093°15'0 0.4
2017-Aug-06 21:30N 30°15' W 093°15'  
Track history (hours):
 
Tides and Currents Weather Stations Pressure Air Temp Water Temp Dewpoint Dewpoint Depression Visibility Wind Speed Wind Dir Waves Ship Positions

Stephen L.

Owner: TRIPLE S MARINE, LLC, MORGAN CITY, LA. More information available from US FCC via Universal Licensing System and Coast Guard Vessel Documentation Center.

Last reported at 2017-Aug-16 21:18 UTC. Time now 2017-Aug-19 01:47 UTC.
Position N 29°34' W 090°56'.

Length 20 m.

Type: Ship. MMSI: 367388580.

Date/timePositionNaut miles runAvg speedWind from/ knotsBaromVisibWave heightAir tempDewpointWater temp
2017-Aug-16 21:18N 29°34' W 090°56'5 6.0
2017-Aug-16 20:31N 29°32' W 090°51'0 6.3
2017-Aug-16 20:29N 29°32' W 090°51'3 6.5
2017-Aug-16 20:00N 29°32' W 090°47'3 5.5
2017-Aug-16 19:30N 29°34' W 090°45'2 3.8
2017-Aug-16 19:00N 29°33' W 090°42'3 6.6
2017-Aug-16 18:31N 29°30' W 090°43'3 6.7
2017-Aug-16 18:00N 29°27' W 090°43'  
2017-Aug-13 08:51N 29°25' W 090°44'2 5.0
2017-Aug-13 08:30N 29°26' W 090°43'3 5.8
2017-Aug-13 08:00N 29°29' W 090°43'3 5.8
2017-Aug-13 07:30N 29°32' W 090°42'2 4.4
2017-Aug-13 07:01N 29°34' W 090°43'2 4.1
2017-Aug-13 06:30N 29°33' W 090°45'2 4.6
2017-Aug-13 06:00N 29°32' W 090°47'3 5.4
2017-Aug-13 05:30N 29°32' W 090°51'3 5.2
2017-Aug-13 04:58N 29°33' W 090°54'3 5.3
2017-Aug-13 04:29N 29°34' W 090°56'2 4.8
2017-Aug-13 04:00N 29°36' W 090°58'50 3.1
2017-Aug-12 11:53N 29°57' W 091°51'0 0.0
2017-Aug-12 11:30N 29°57' W 091°50'  
2017-Aug-09 11:29N 29°49' W 092°02'3 6.1
2017-Aug-09 11:00N 29°48' W 092°06'3 5.8
2017-Aug-09 10:30N 29°47' W 092°09'2 3.2
2017-Aug-09 10:00N 29°47' W 092°10'2 4.4
2017-Aug-09 09:30N 29°47' W 092°13'3 6.3
2017-Aug-09 09:00N 29°49' W 092°16'3 5.9
2017-Aug-09 08:30N 29°50' W 092°19'39 5.6
2017-Aug-09 01:26N 29°56' W 093°04'5 5.8
2017-Aug-09 00:38N 29°56' W 093°09'1 6.0
2017-Aug-09 00:30N 29°57' W 093°10'3 6.1
2017-Aug-09 00:00N 29°59' W 093°12'3 5.4
2017-Aug-08 23:30N 30°01' W 093°14'3 5.4
2017-Aug-08 23:00N 30°03' W 093°16'2 3.9
2017-Aug-08 22:30N 30°05' W 093°17'1 2.0
2017-Aug-08 22:00N 30°06' W 093°18'0 0.6
2017-Aug-08 21:30N 30°06' W 093°18'0 0.0
2017-Aug-08 21:00N 30°06' W 093°18'1 1.0
2017-Aug-08 20:30N 30°06' W 093°19'4 7.4
2017-Aug-08 20:00N 30°10' W 093°19'1 2.4
2017-Aug-08 19:30N 30°11' W 093°19'3 6.7
2017-Aug-08 19:00N 30°13' W 093°16'2 3.1
2017-Aug-08 18:30N 30°14' W 093°15'0 0.3
2017-Aug-08 16:56N 30°15' W 093°15'0 0.0
2017-Aug-08 16:27N 30°15' W 093°15'0 0.0
2017-Aug-08 16:00N 30°15' W 093°15'0 0.0
2017-Aug-08 15:30N 30°15' W 093°15'0 0.0
2017-Aug-08 15:00N 30°15' W 093°15'0 0.0
2017-Aug-08 14:28N 30°15' W 093°15'0 0.1
2017-Aug-08 13:58N 30°15' W 093°15'0 0.0
2017-Aug-07 16:00N 30°15' W 093°15'0 0.0
2017-Aug-07 14:54N 30°15' W 093°15'0 0.1
2017-Aug-07 14:12N 30°15' W 093°15'0 0.0
2017-Aug-07 13:58N 30°15' W 093°15'0 0.0
2017-Aug-07 13:29N 30°15' W 093°15'0 0.0
2017-Aug-07 12:59N 30°15' W 093°15'0 0.0
2017-Aug-07 12:11N 30°15' W 093°15'0 0.0
2017-Aug-07 11:56N 30°15' W 093°15'0 0.0
2017-Aug-07 11:26N 30°15' W 093°15'0 0.0
2017-Aug-07 10:56N 30°15' W 093°15'0 0.0
2017-Aug-07 10:17N 30°15' W 093°15'0 0.0
2017-Aug-07 09:58N 30°15' W 093°15'0 0.0
2017-Aug-07 09:07N 30°15' W 093°15'0 0.0
2017-Aug-07 08:59N 30°15' W 093°15'0 0.0
2017-Aug-07 08:24N 30°15' W 093°15'0 0.0
2017-Aug-07 07:59N 30°15' W 093°15'0 0.0
2017-Aug-07 03:51N 30°15' W 093°15'0 0.0
2017-Aug-07 03:30N 30°15' W 093°15'0 0.0
2017-Aug-07 01:32N 30°15' W 093°15'0 0.0
2017-Aug-07 01:21N 30°15' W 093°15'0 0.0
2017-Aug-07 00:27N 30°15' W 093°15'0 0.0
2017-Aug-06 23:57N 30°15' W 093°15'0 0.0
2017-Aug-06 23:28N 30°15' W 093°15'0 0.0
2017-Aug-06 22:12N 30°15' W 093°15'0 0.0
2017-Aug-06 21:55N 30°15' W 093°15'0 0.4
2017-Aug-06 21:30N 30°15' W 093°15'  

Dump ship's entire track history